createdAt,value
2018-12-18T11:22:16.086Z,90.40
2018-12-18T11:24:44.328Z,90.40
2018-12-18T11:27:12.806Z,90.70
2018-12-18T11:29:41.056Z,90.60
2018-12-18T11:32:09.537Z,90.60
2018-12-18T11:34:37.980Z,90.70
2018-12-18T11:37:06.560Z,90.60
2018-12-18T11:39:34.826Z,90.50
2018-12-18T11:42:03.213Z,90.60
2018-12-18T11:44:31.480Z,90.60
2018-12-18T11:46:59.925Z,90.60
2018-12-18T11:49:28.186Z,90.50
2018-12-18T11:51:56.432Z,90.30
2018-12-18T11:54:24.725Z,90.30
2018-12-18T11:56:52.981Z,90.30
2018-12-18T11:59:21.255Z,90.30
2018-12-18T12:01:49.526Z,90.30
2018-12-18T12:04:17.811Z,90.40
2018-12-18T12:06:46.052Z,90.40
2018-12-18T12:09:14.520Z,90.40
2018-12-18T12:11:42.784Z,90.40
2018-12-18T12:14:11.182Z,90.40
2018-12-18T12:16:39.521Z,90.40
2018-12-18T12:19:07.968Z,90.40
2018-12-18T12:21:36.221Z,90.70
2018-12-18T12:24:04.546Z,90.40
2018-12-18T12:26:32.919Z,90.40
2018-12-18T12:29:01.719Z,90.50
2018-12-18T12:31:30.144Z,90.50
2018-12-18T12:33:58.748Z,90.50
2018-12-18T12:36:29.846Z,90.50
2018-12-18T12:38:57.228Z,90.50
2018-12-18T12:41:25.831Z,90.40
2018-12-18T12:43:54.183Z,90.40
2018-12-18T12:46:22.427Z,90.40
2018-12-18T12:48:56.098Z,90.40
2018-12-18T12:51:24.596Z,90.30
2018-12-18T12:53:52.958Z,90.40
2018-12-18T12:56:21.221Z,90.40
2018-12-18T12:58:49.529Z,90.30
2018-12-18T13:01:17.781Z,90.40
2018-12-18T13:03:46.028Z,90.40
2018-12-18T13:06:14.288Z,90.30
2018-12-18T13:08:42.537Z,90.40
2018-12-18T13:11:10.901Z,90.40
2018-12-18T13:13:39.185Z,90.30
2018-12-18T13:16:07.588Z,90.30
2018-12-18T13:18:35.847Z,90.30
2018-12-18T13:21:04.216Z,90.20
2018-12-18T13:23:32.516Z,90.20
2018-12-18T13:26:01.037Z,90.10
2018-12-18T13:28:29.369Z,90.00
2018-12-18T13:30:57.631Z,90.00
2018-12-18T13:33:25.944Z,90.00
2018-12-18T13:35:54.197Z,90.40
2018-12-18T13:38:22.668Z,90.00
2018-12-18T13:40:57.681Z,90.00
2018-12-18T13:43:25.992Z,90.00
2018-12-18T13:45:54.476Z,90.10
2018-12-18T13:48:23.092Z,90.10
2018-12-18T13:50:51.338Z,90.00
2018-12-18T13:53:19.617Z,90.00
2018-12-18T13:58:22.419Z,90.00
2018-12-18T14:00:51.126Z,90.00
2018-12-18T14:03:19.470Z,90.00
2018-12-18T14:05:47.724Z,90.10
2018-12-18T14:08:15.968Z,90.00
2018-12-18T14:10:44.296Z,90.10
2018-12-18T14:13:12.558Z,90.10
2018-12-18T14:15:40.880Z,90.20
2018-12-18T14:18:09.171Z,90.30
2018-12-18T14:20:37.547Z,90.30
2018-12-18T14:23:05.784Z,90.40
2018-12-18T14:25:34.059Z,90.40
2018-12-18T14:28:02.311Z,90.50
2018-12-18T14:30:30.595Z,90.50
2018-12-18T14:32:58.852Z,90.50
2018-12-18T14:35:27.146Z,90.50
2018-12-18T14:37:55.415Z,90.60
2018-12-18T14:40:23.658Z,90.60
2018-12-18T14:42:52.028Z,90.70
2018-12-18T14:45:20.292Z,90.80
2018-12-18T14:47:48.615Z,90.80
2018-12-18T14:50:17.139Z,90.90
2018-12-18T14:52:45.440Z,90.80
2018-12-18T14:55:13.809Z,90.90
2018-12-18T14:57:42.295Z,91.00
2018-12-18T15:00:10.640Z,91.00
2018-12-18T15:02:38.993Z,90.90
2018-12-18T15:05:07.335Z,90.90
2018-12-18T15:07:35.673Z,90.90
2018-12-18T15:10:04.206Z,91.00
2018-12-18T15:12:32.439Z,91.00
2018-12-18T15:15:00.732Z,91.30
2018-12-18T15:17:35.576Z,91.10
2018-12-18T15:20:04.249Z,91.10
2018-12-18T15:22:32.512Z,91.20
2018-12-18T15:25:00.744Z,91.20
2018-12-18T15:27:28.996Z,91.20
2018-12-18T15:29:57.386Z,91.20
2018-12-18T15:32:26.112Z,91.30
2018-12-18T15:34:54.454Z,91.30
2018-12-18T15:37:22.791Z,91.40
2018-12-18T15:39:51.032Z,91.40
2018-12-18T15:42:19.323Z,91.50
2018-12-18T15:44:47.828Z,91.40
2018-12-18T15:47:16.076Z,91.40
2018-12-18T15:49:44.350Z,91.40
2018-12-18T15:52:12.593Z,91.40
2018-12-18T15:54:40.833Z,91.40
2018-12-18T15:57:09.172Z,91.50
2018-12-18T15:59:37.495Z,91.40
2018-12-18T16:02:05.848Z,91.50
2018-12-18T16:04:34.182Z,91.50
2018-12-18T16:07:02.586Z,91.60
2018-12-18T16:09:30.809Z,91.60
2018-12-18T16:11:59.306Z,91.50
2018-12-18T16:14:27.569Z,91.90
2018-12-18T16:16:55.911Z,91.50
2018-12-18T16:19:24.320Z,91.60
2018-12-18T16:21:52.679Z,91.60
2018-12-18T16:24:21.150Z,91.80
2018-12-18T16:26:49.457Z,91.60
2018-12-18T16:29:18.037Z,91.50
2018-12-18T16:31:46.269Z,91.60
2018-12-18T16:34:14.535Z,91.70
2018-12-18T16:36:42.801Z,91.70
2018-12-18T16:39:11.052Z,91.80
2018-12-18T16:41:39.462Z,91.80
2018-12-18T16:44:07.698Z,91.90
2018-12-18T16:46:35.944Z,92.10
2018-12-18T16:49:04.348Z,92.10
2018-12-18T16:51:32.688Z,92.10
2018-12-18T16:54:01.594Z,92.00
2018-12-18T16:56:29.936Z,92.00
2018-12-18T16:58:58.364Z,92.00
2018-12-18T17:01:26.616Z,92.00
2018-12-18T17:03:54.961Z,92.20
2018-12-18T17:06:23.194Z,92.10
2018-12-18T17:08:51.445Z,92.10
2018-12-18T17:11:19.701Z,92.10
2018-12-18T17:13:48.065Z,92.10
2018-12-18T17:16:16.276Z,92.10
2018-12-18T17:18:44.624Z,92.10
2018-12-18T17:21:16.241Z,92.10
2018-12-18T17:23:44.593Z,92.10
2018-12-18T17:26:13.027Z,92.10
2018-12-18T17:28:41.268Z,92.10
2018-12-18T17:31:09.756Z,92.10
2018-12-18T17:33:37.985Z,92.10
2018-12-18T17:36:06.544Z,92.10
2018-12-18T17:38:34.847Z,92.10
2018-12-18T17:41:03.199Z,92.10
2018-12-18T17:43:31.752Z,92.20
2018-12-18T17:46:00.087Z,92.20
2018-12-18T17:48:28.337Z,92.20
2018-12-18T17:50:56.624Z,92.30
2018-12-18T17:53:24.929Z,92.30
2018-12-18T17:55:53.239Z,92.30
2018-12-18T17:58:21.480Z,92.30
2018-12-18T18:00:49.791Z,92.20
2018-12-18T18:03:18.052Z,92.10
2018-12-18T18:05:46.374Z,92.20
2018-12-18T18:08:14.700Z,92.20
2018-12-18T18:10:42.988Z,92.20
2018-12-18T18:13:11.243Z,92.20
2018-12-18T18:15:39.556Z,92.20
2018-12-18T18:18:07.788Z,92.20
2018-12-18T18:20:36.044Z,92.20
2018-12-18T18:23:04.312Z,92.00
2018-12-18T18:25:32.574Z,92.00
2018-12-18T18:28:00.823Z,92.30
2018-12-18T18:30:29.171Z,92.00
2018-12-18T18:32:57.631Z,92.00
2018-12-18T18:35:25.878Z,92.00
2018-12-18T18:37:54.141Z,92.10
2018-12-18T18:40:22.388Z,92.10
2018-12-18T18:42:50.656Z,92.00
2018-12-18T18:45:18.964Z,92.00
2018-12-18T18:47:47.223Z,92.20
2018-12-18T18:50:15.488Z,92.30
2018-12-18T18:52:47.641Z,91.90
2018-12-18T18:55:16.216Z,92.00
2018-12-18T18:57:44.592Z,91.90
2018-12-18T19:00:13.333Z,91.90
2018-12-18T19:02:41.678Z,91.90
2018-12-18T19:05:09.933Z,91.80
2018-12-18T19:07:41.689Z,91.80
2018-12-18T19:10:09.939Z,91.70
2018-12-18T19:12:38.205Z,91.70
2018-12-18T19:15:06.559Z,91.70
2018-12-18T19:17:34.939Z,91.70
2018-12-18T19:20:03.625Z,91.70
2018-12-18T19:22:31.884Z,91.80
2018-12-18T19:25:00.284Z,91.60
2018-12-18T19:27:28.753Z,91.70
2018-12-18T19:29:57.019Z,91.60
2018-12-18T19:32:25.308Z,91.60
2018-12-18T19:34:53.588Z,91.60
2018-12-18T19:37:21.897Z,91.50
2018-12-18T19:39:50.361Z,91.50
2018-12-18T19:42:19.168Z,91.50
2018-12-18T19:44:47.577Z,91.40
2018-12-18T19:47:15.953Z,91.40
2018-12-18T19:49:44.287Z,91.40
2018-12-18T19:52:12.532Z,91.50
2018-12-18T19:54:41.088Z,91.50
2018-12-18T19:57:09.347Z,91.50
2018-12-18T19:59:37.596Z,91.50
2018-12-18T20:02:06.104Z,91.40
2018-12-18T20:04:34.407Z,91.40
2018-12-18T20:07:02.641Z,91.40
2018-12-18T20:09:30.912Z,91.40
2018-12-18T20:11:59.237Z,91.40
2018-12-18T20:14:27.514Z,91.30
2018-12-18T20:16:56.060Z,91.30
2018-12-18T20:19:24.321Z,91.40
2018-12-18T20:21:52.563Z,91.20
2018-12-18T20:24:20.830Z,91.30
2018-12-18T20:26:49.950Z,91.40
2018-12-18T20:29:18.251Z,91.40
2018-12-18T20:31:46.530Z,91.40
2018-12-18T20:34:14.808Z,91.40
2018-12-18T20:36:43.060Z,91.30
2018-12-18T20:39:14.533Z,91.30
2018-12-18T20:41:42.895Z,91.40
2018-12-18T20:44:11.191Z,91.30
2018-12-18T20:46:39.446Z,91.20
2018-12-18T20:49:07.757Z,91.20
2018-12-18T20:51:35.980Z,91.50
2018-12-18T20:54:04.687Z,91.10
2018-12-18T20:56:33.153Z,91.10
2018-12-18T20:59:01.388Z,91.10
2018-12-18T21:01:29.944Z,91.20
2018-12-18T21:03:58.205Z,91.40
2018-12-18T21:06:26.474Z,91.20
2018-12-18T21:08:54.743Z,91.10
2018-12-18T21:11:23.005Z,91.20
2018-12-18T21:13:51.285Z,91.30
2018-12-18T21:16:19.573Z,91.30
2018-12-18T21:18:48.208Z,91.30
2018-12-18T21:21:16.451Z,91.20
2018-12-18T21:23:44.827Z,91.20
2018-12-18T21:26:13.091Z,91.00
2018-12-18T21:28:41.352Z,91.10
2018-12-18T21:31:09.636Z,91.20
2018-12-18T21:33:37.911Z,91.20
2018-12-18T21:36:06.392Z,91.00
2018-12-18T21:38:34.666Z,91.00
2018-12-18T21:41:03.041Z,91.00
2018-12-18T21:43:31.304Z,90.90
2018-12-18T21:45:59.580Z,90.90
2018-12-18T21:48:27.957Z,90.90
2018-12-18T21:50:56.193Z,90.90
2018-12-18T21:53:24.524Z,91.00
2018-12-18T21:55:52.820Z,90.90
2018-12-18T21:58:21.495Z,91.00
2018-12-18T22:00:49.740Z,91.00
2018-12-18T22:03:18.003Z,91.00
2018-12-18T22:05:46.268Z,91.10
2018-12-18T22:08:14.521Z,91.00
2018-12-18T22:10:46.069Z,91.00
2018-12-18T22:13:14.332Z,90.90
2018-12-18T22:15:42.617Z,90.80
2018-12-18T22:18:10.920Z,90.80
2018-12-18T22:20:39.220Z,90.80
2018-12-18T22:23:07.484Z,90.80
2018-12-18T22:25:35.756Z,90.80
2018-12-18T22:28:04.125Z,90.80
2018-12-18T22:30:32.384Z,90.80
2018-12-18T22:33:00.960Z,90.80
2018-12-18T22:35:29.240Z,90.90
2018-12-18T22:37:57.502Z,90.90
2018-12-18T22:40:25.834Z,90.90
2018-12-18T22:42:54.140Z,90.90
2018-12-18T22:45:22.416Z,91.00
2018-12-18T22:47:50.694Z,90.90
2018-12-18T22:50:19.427Z,90.80
2018-12-18T22:52:47.981Z,90.80
2018-12-18T22:55:16.217Z,90.60
2018-12-18T22:57:44.477Z,90.80
2018-12-18T23:00:17.553Z,90.80
2018-12-18T23:02:45.841Z,90.70
2018-12-18T23:05:14.267Z,90.70
2018-12-18T23:07:42.536Z,90.70
2018-12-18T23:10:10.816Z,90.70
2018-12-18T23:12:39.066Z,90.60
2018-12-18T23:15:07.519Z,90.70
2018-12-18T23:17:35.764Z,90.70
2018-12-18T23:20:04.500Z,90.60
2018-12-18T23:22:32.756Z,90.50
2018-12-18T23:25:01.042Z,90.60
2018-12-18T23:27:29.460Z,90.70
2018-12-18T23:29:57.763Z,90.80
2018-12-18T23:32:26.058Z,90.70
2018-12-18T23:34:54.392Z,90.70
2018-12-18T23:37:22.706Z,90.80
2018-12-18T23:39:51.091Z,90.80
2018-12-18T23:42:25.934Z,90.70
2018-12-18T23:44:54.256Z,90.70
2018-12-18T23:47:22.503Z,91.00
2018-12-18T23:49:50.775Z,90.70
2018-12-18T23:52:19.037Z,90.60
2018-12-18T23:54:47.546Z,90.70
2018-12-18T23:57:15.856Z,90.70
2018-12-18T23:59:44.199Z,90.80
